Time;durP1;ratioP1;P1;durP2;ratioP2;P2;SDS_P1;SDS_P2;PMS_P1;PMS_P2;Temp;Humidity;BMP_temperature;BMP_pressure;BME280_temperature;BME280_humidity;BME280_pressure;Samples;Min_cycle;Max_cycle;Signal;HPM_P1;HPM_P2
2021/12/16 00:08:04;;;;;;;22.98;16.35;;;;;;;6.04;89.81;101524.91;2099344;83;21072;-73
2021/12/16 00:34:00;;;;;;;27.52;16.75;;;;;;;6.11;89.93;101513.02;2075851;82;21014;-69
2021/12/16 00:37:01;;;;;;;22.10;15.60;;;;;;;6.10;89.95;101511.30;2082668;82;21092;-78
2021/12/16 00:40:07;;;;;;;23.52;14.70;;;;;;;6.08;89.90;101510.55;2066672;83;21055;-71
2021/12/16 00:43:16;;;;;;;24.55;15.93;;;;;;;6.11;89.97;101516.97;2086900;83;21513;-72
2021/12/16 00:49:41;;;;;;;24.92;15.80;;;;;;;6.12;89.91;101520.44;2064017;83;21040;-75
2021/12/16 00:56:02;;;;;;;22.33;14.83;;;;;;;6.14;89.95;101515.89;2078888;83;21060;-71
2021/12/16 00:59:08;;;;;;;22.02;14.58;;;;;;;6.15;89.91;101514.95;2079693;83;21006;-72
2021/12/16 01:02:35;;;;;;;24.30;15.70;;;;;;;6.18;89.93;101515.58;2062851;82;21061;-78
2021/12/16 01:52:46;;;;;;;21.70;14.05;;;;;;;6.16;89.86;101492.44;2077425;83;21050;-70
2021/12/16 01:57:56;;;;;;;20.05;13.78;;;;;;;6.17;89.78;101495.94;2088942;83;21067;-72
2021/12/16 02:01:18;;;;;;;19.17;13.28;;;;;;;6.17;89.82;101491.51;2053921;83;21041;-70
2021/12/16 02:04:27;;;;;;;21.68;14.80;;;;;;;6.19;89.77;101494.86;2091969;82;21158;-72
2021/12/16 02:07:45;;;;;;;22.82;15.00;;;;;;;6.18;89.72;101495.81;2076187;83;21055;-70
2021/12/16 02:10:35;;;;;;;21.77;14.80;;;;;;;6.18;89.77;101494.50;2072159;82;21583;-72
2021/12/16 02:27:13;;;;;;;19.55;13.48;;;;;;;6.16;89.78;101496.39;2080202;82;21017;-78
2021/12/16 02:31:12;;;;;;;18.95;13.70;;;;;;;6.16;89.71;101496.87;2079838;83;21019;-72
2021/12/16 02:33:20;;;;;;;19.23;12.95;;;;;;;6.16;89.75;101496.87;2081473;82;21013;-70
2021/12/16 02:39:38;;;;;;;18.48;13.45;;;;;;;6.22;89.77;101497.31;2086545;82;21060;-71
2021/12/16 02:42:54;;;;;;;19.82;14.00;;;;;;;6.24;89.66;101504.62;2090632;83;21049;-70
2021/12/16 02:49:04;;;;;;;21.42;15.63;;;;;;;6.20;89.62;101497.88;2087650;82;21092;-71
2021/12/16 02:52:08;;;;;;;18.87;13.88;;;;;;;6.17;89.54;101504.69;2078944;82;21479;-70
2021/12/16 02:55:13;;;;;;;19.85;13.38;;;;;;;6.16;89.54;101504.77;2096950;82;21100;-70
2021/12/16 02:58:16;;;;;;;20.72;13.30;;;;;;;6.14;89.49;101498.75;2069105;82;21076;-70
2021/12/16 03:01:28;;;;;;;19.60;12.98;;;;;;;6.12;89.51;101498.88;2084007;83;22091;-71
2021/12/16 03:04:30;;;;;;;20.72;12.85;;;;;;;6.11;89.50;101493.25;2055012;82;21072;-73
2021/12/16 03:07:33;;;;;;;16.25;12.37;;;;;;;6.14;89.56;101492.16;2086893;82;21515;-70
2021/12/16 03:17:30;;;;;;;16.45;12.10;;;;;;;6.10;89.43;101494.17;2078854;83;21128;-78
2021/12/16 03:20:49;;;;;;;17.32;12.15;;;;;;;6.08;89.45;101477.61;2085218;83;21073;-72
2021/12/16 03:39:17;;;;;;;14.35;10.70;;;;;;;5.96;89.50;101512.23;2091051;82;21134;-76
2021/12/16 03:42:45;;;;;;;13.50;10.05;;;;;;;5.95;89.54;101504.45;2090377;83;21607;-71
2021/12/16 03:49:24;;;;;;;12.10;9.98;;;;;;;5.95;89.52;101518.45;2084981;82;21659;-70
2021/12/16 03:52:27;;;;;;;14.28;10.70;;;;;;;5.96;89.50;101512.71;2088521;83;21068;-70
2021/12/16 03:55:30;;;;;;;15.03;10.60;;;;;;;5.99;89.52;101517.30;2089371;83;21064;-71
2021/12/16 03:58:32;;;;;;;13.62;9.55;;;;;;;6.00;89.46;101514.21;2077228;83;21121;-71
2021/12/16 04:01:34;;;;;;;13.88;10.18;;;;;;;6.01;89.41;101520.67;2090504;83;21095;-71
2021/12/16 04:04:39;;;;;;;13.45;9.45;;;;;;;6.01;89.37;101514.09;2080717;83;21048;-76
2021/12/16 04:07:43;;;;;;;13.83;9.78;;;;;;;6.04;89.37;101515.20;2083712;83;21049;-70
2021/12/16 04:11:04;;;;;;;13.25;10.48;;;;;;;6.06;89.37;101517.27;2090687;83;22498;-69
2021/12/16 04:14:09;;;;;;;16.75;11.53;;;;;;;6.08;89.30;101518.46;2090669;83;20990;-71
2021/12/16 04:17:14;;;;;;;17.10;10.82;;;;;;;6.06;89.28;101513.31;2074118;82;21151;-71
2021/12/16 04:20:18;;;;;;;15.90;10.13;;;;;;;6.04;89.24;101512.56;2074383;82;21012;-70
2021/12/16 04:23:20;;;;;;;15.05;11.03;;;;;;;6.04;89.20;101526.22;2088450;83;22417;-71
2021/12/16 04:26:28;;;;;;;13.98;11.00;;;;;;;6.04;89.23;101518.31;2079445;83;21097;-72
2021/12/16 04:29:30;;;;;;;17.50;10.40;;;;;;;6.05;89.18;101520.86;2080747;82;22521;-72
2021/12/16 04:32:33;;;;;;;15.53;11.08;;;;;;;6.06;89.17;101527.80;2079120;83;21048;-73
2021/12/16 04:35:36;;;;;;;17.60;11.33;;;;;;;6.08;89.19;101520.26;2065142;83;21083;-73
2021/12/16 04:38:40;;;;;;;16.00;11.38;;;;;;;6.08;89.16;101515.83;2077490;82;21088;-70
2021/12/16 04:41:42;;;;;;;20.90;11.03;;;;;;;6.09;89.13;101522.80;2090714;83;21099;-71
2021/12/16 04:44:46;;;;;;;14.95;10.60;;;;;;;6.11;89.07;101522.23;2084757;83;21498;-70
2021/12/16 04:47:49;;;;;;;16.27;11.30;;;;;;;6.11;88.98;101526.19;2080629;82;21223;-70
2021/12/16 04:50:51;;;;;;;19.65;12.07;;;;;;;6.08;88.80;101530.32;2083965;82;21066;-70
2021/12/16 04:53:55;;;;;;;17.73;12.10;;;;;;;6.03;88.72;101528.49;2084757;83;21128;-71
2021/12/16 04:56:59;;;;;;;18.48;13.18;;;;;;;6.00;88.72;101528.22;2085849;83;20965;-72
2021/12/16 05:00:05;;;;;;;18.35;11.83;;;;;;;5.98;88.73;101514.30;2082645;82;21037;-72
2021/12/16 05:03:09;;;;;;;16.62;11.63;;;;;;;5.94;88.68;101510.64;2072789;82;21156;-72
2021/12/16 05:06:16;;;;;;;16.07;11.18;;;;;;;5.91;88.77;101516.92;2091843;83;21104;-70
2021/12/16 05:10:00;;;;;;;17.50;11.83;;;;;;;5.89;88.79;101518.84;2069779;83;21044;-73
2021/12/16 05:12:33;;;;;;;16.80;11.85;;;;;;;5.91;88.85;101517.41;2073671;82;21045;-72
2021/12/16 05:15:37;;;;;;;15.10;11.57;;;;;;;5.91;88.87;101521.36;2065795;82;21109;-71
2021/12/16 05:18:39;;;;;;;24.27;11.48;;;;;;;5.92;88.92;101514.68;2086388;82;21548;-71
2021/12/16 05:21:50;;;;;;;16.32;10.95;;;;;;;5.94;88.92;101528.64;2087980;83;21144;-70
2021/12/16 05:24:50;;;;;;;18.40;12.47;;;;;;;5.96;88.92;101530.67;2070808;83;21026;-75
2021/12/16 05:27:53;;;;;;;17.90;12.40;;;;;;;5.96;88.87;101525.88;2088997;82;21007;-70
2021/12/16 05:30:56;;;;;;;19.60;12.07;;;;;;;5.98;88.91;101522.20;2083742;83;21096;-72
2021/12/16 05:34:01;;;;;;;17.50;12.60;;;;;;;5.96;88.84;101517.98;2074263;83;21084;-71
2021/12/16 05:37:05;;;;;;;18.75;12.35;;;;;;;5.96;88.88;101520.61;2092990;83;21107;-71
2021/12/16 05:40:10;;;;;;;18.15;11.63;;;;;;;5.95;88.92;101519.78;2087658;83;21337;-78
2021/12/16 05:43:23;;;;;;;18.90;11.20;;;;;;;5.91;88.94;101511.66;2071833;82;21084;-72
2021/12/16 05:46:27;;;;;;;19.27;11.93;;;;;;;5.91;89.01;101504.23;2087226;82;21634;-73
2021/12/16 05:49:30;;;;;;;21.97;13.18;;;;;;;5.90;89.05;101505.19;2085922;82;21496;-75
2021/12/16 05:52:32;;;;;;;20.45;12.78;;;;;;;5.89;89.12;101504.35;2084987;82;21088;-72
2021/12/16 05:55:36;;;;;;;17.30;12.10;;;;;;;5.89;89.14;101508.78;2087790;82;21049;-76
2021/12/16 05:58:39;;;;;;;17.77;12.43;;;;;;;5.88;89.21;101511.86;2059179;83;21068;-84
2021/12/16 06:01:42;;;;;;;17.23;12.10;;;;;;;5.88;89.29;101521.08;2088623;83;21095;-71
2021/12/16 06:04:50;;;;;;;19.57;12.45;;;;;;;5.86;89.31;101516.41;2079810;83;21168;-75
2021/12/16 06:07:51;;;;;;;19.23;13.00;;;;;;;5.86;89.34;101513.78;2089595;82;21080;-72
2021/12/16 06:27:16;;;;;;;23.35;14.90;;;;;;;5.83;89.66;101526.68;2077735;83;20966;-70
2021/12/16 06:30:23;;;;;;;24.07;14.95;;;;;;;5.83;89.68;101524.05;2070167;83;21068;-75
2021/12/16 06:33:29;;;;;;;24.45;15.38;;;;;;;5.84;89.75;101528.84;2090660;82;21115;-74
2021/12/16 06:36:31;;;;;;;24.70;15.15;;;;;;;5.87;89.78;101530.42;2073213;83;21012;-72
2021/12/16 06:39:33;;;;;;;22.13;15.32;;;;;;;5.88;89.83;101533.42;2083779;82;21048;-71
2021/12/16 06:42:40;;;;;;;25.50;15.38;;;;;;;5.88;89.87;101531.63;2084682;83;21072;-70
2021/12/16 06:45:44;;;;;;;23.38;15.15;;;;;;;5.89;89.90;101529.38;2079086;82;21602;-74
2021/12/16 06:48:47;;;;;;;25.32;16.25;;;;;;;5.90;89.90;101530.22;2089210;83;21505;-77
2021/12/16 06:51:55;;;;;;;25.10;16.52;;;;;;;5.90;89.98;101527.58;2082909;83;21008;-70
2021/12/16 06:55:20;;;;;;;27.62;17.05;;;;;;;5.88;90.00;101521.56;2086442;82;21072;-73
2021/12/16 06:58:10;;;;;;;28.42;17.82;;;;;;;5.87;90.15;101519.41;2082866;83;21088;-72
2021/12/16 07:01:15;;;;;;;34.27;18.35;;;;;;;5.87;90.20;101527.80;2078783;83;21076;-79
2021/12/16 07:04:17;;;;;;;26.93;16.57;;;;;;;5.87;90.24;101519.89;2076932;83;21528;-75
2021/12/16 07:07:18;;;;;;;28.02;17.52;;;;;;;5.87;90.26;101517.25;2053868;82;21080;-72
2021/12/16 07:10:21;;;;;;;27.80;17.52;;;;;;;5.85;90.28;101515.55;2082746;83;21057;-70
2021/12/16 07:13:35;;;;;;;27.62;16.65;;;;;;;5.88;90.38;101513.66;2084349;83;21567;-70
2021/12/16 07:16:32;;;;;;;28.90;18.12;;;;;;;5.89;90.46;101518.00;2093376;82;21095;-71
2021/12/16 07:19:34;;;;;;;26.25;17.57;;;;;;;5.89;90.42;101520.16;2089190;83;21903;-71
2021/12/16 07:22:36;;;;;;;26.87;18.60;;;;;;;5.91;90.46;101527.94;2095351;82;21631;-71
2021/12/16 07:25:39;;;;;;;33.67;19.45;;;;;;;5.92;90.49;101538.87;2077098;83;21570;-79
2021/12/16 07:28:40;;;;;;;26.80;17.73;;;;;;;5.91;90.53;101535.84;2070123;83;21056;-72
2021/12/16 07:31:42;;;;;;;26.07;16.42;;;;;;;5.92;90.60;101531.80;2078512;83;21029;-70
2021/12/16 07:34:44;;;;;;;31.75;17.75;;;;;;;5.93;90.67;101531.33;2088983;83;21088;-71
2021/12/16 07:37:46;;;;;;;28.65;17.23;;;;;;;5.93;90.69;101530.01;2090941;82;21036;-71
2021/12/16 07:40:51;;;;;;;28.00;17.52;;;;;;;5.95;90.77;101536.91;2084416;82;21053;-73
2021/12/16 07:44:09;;;;;;;30.05;18.42;;;;;;;5.94;90.82;101532.59;2083954;82;21139;-70
2021/12/16 07:47:07;;;;;;;26.62;16.75;;;;;;;5.94;90.90;101523.81;2081716;82;21064;-71
2021/12/16 07:50:11;;;;;;;27.70;18.00;;;;;;;5.95;90.97;101520.26;2092331;82;21583;-70
2021/12/16 07:53:13;;;;;;;25.20;16.50;;;;;;;5.95;91.00;101528.16;2091641;83;21009;-75
2021/12/16 07:56:15;;;;;;;28.77;16.35;;;;;;;5.94;91.09;101522.05;2083275;82;21154;-73
2021/12/16 07:59:17;;;;;;;26.80;16.85;;;;;;;5.94;91.08;101531.72;2088816;83;21103;-72
2021/12/16 08:02:19;;;;;;;27.05;17.15;;;;;;;5.95;91.14;101529.48;2083326;83;21149;-70
2021/12/16 08:05:25;;;;;;;29.02;17.07;;;;;;;5.96;91.24;101532.47;2086030;82;21029;-71
2021/12/16 08:08:27;;;;;;;26.25;16.27;;;;;;;5.97;91.27;101532.83;2090183;81;21122;-70
2021/12/16 08:11:33;;;;;;;24.20;16.27;;;;;;;5.97;91.43;101537.66;2086092;83;21092;-73
2021/12/16 08:14:35;;;;;;;27.37;17.17;;;;;;;5.99;91.51;101541.48;2088470;82;20993;-70
2021/12/16 08:17:37;;;;;;;26.97;17.45;;;;;;;6.01;91.58;101536.97;2083504;81;21366;-73
2021/12/16 08:20:40;;;;;;;30.20;18.85;;;;;;;6.03;91.68;101536.40;2079800;82;21080;-72
2021/12/16 08:23:42;;;;;;;27.67;17.10;;;;;;;6.08;91.76;101538.70;2070767;82;21602;-71
2021/12/16 08:26:48;;;;;;;31.20;17.90;;;;;;;6.12;91.78;101546.80;2075068;83;21627;-71
2021/12/16 08:29:50;;;;;;;26.23;17.25;;;;;;;6.15;91.78;101550.06;2081677;83;21208;-78
2021/12/16 08:32:51;;;;;;;26.90;16.35;;;;;;;6.15;91.79;101554.02;2087492;82;21493;-70
2021/12/16 08:35:56;;;;;;;24.23;14.78;;;;;;;6.17;91.76;101552.61;2074225;82;21571;-71
2021/12/16 08:38:58;;;;;;;27.27;16.48;;;;;;;6.15;91.70;101550.06;2082464;82;21056;-72
2021/12/16 08:42:01;;;;;;;23.95;16.40;;;;;;;6.15;91.76;101555.33;2085744;81;21127;-71
2021/12/16 08:45:07;;;;;;;20.62;14.55;;;;;;;6.16;91.77;101563.59;2064229;83;21001;-75
2021/12/16 08:48:10;;;;;;;31.00;17.23;;;;;;;6.16;91.82;101565.39;2079268;82;21122;-71
2021/12/16 08:51:16;;;;;;;23.60;16.07;;;;;;;6.14;91.77;101572.55;2086941;83;21107;-70
2021/12/16 08:54:19;;;;;;;25.88;16.07;;;;;;;6.15;91.83;101590.91;2076421;83;21593;-73
2021/12/16 08:57:21;;;;;;;24.50;15.68;;;;;;;6.16;91.85;101590.43;2090125;83;21036;-72
2021/12/16 09:00:28;;;;;;;23.10;15.63;;;;;;;6.15;91.79;101596.18;2074428;83;21559;-72
2021/12/16 09:03:30;;;;;;;24.70;15.88;;;;;;;6.15;91.77;101597.98;2067003;82;21061;-72
2021/12/16 09:06:32;;;;;;;23.10;15.58;;;;;;;6.17;91.80;101601.36;2075336;82;21065;-73
2021/12/16 09:09:35;;;;;;;21.70;14.07;;;;;;;6.17;91.79;101599.56;2065156;82;21080;-72
2021/12/16 09:12:50;;;;;;;26.17;16.12;;;;;;;6.17;91.80;101589.02;2086473;83;21005;-72
2021/12/16 09:15:46;;;;;;;23.55;14.58;;;;;;;6.17;91.80;101580.28;2065406;83;21504;-70
2021/12/16 09:18:48;;;;;;;22.13;14.58;;;;;;;6.17;91.79;101585.55;2087019;83;21104;-71
2021/12/16 09:21:50;;;;;;;21.27;13.90;;;;;;;6.15;91.83;101575.09;2097322;82;21100;-71
2021/12/16 09:24:54;;;;;;;21.17;13.18;;;;;;;6.17;91.83;101594.30;2081248;83;21043;-73
2021/12/16 09:27:56;;;;;;;22.67;13.58;;;;;;;6.16;91.81;101595.22;2088534;82;22529;-70
2021/12/16 09:31:01;;;;;;;20.70;13.10;;;;;;;6.16;91.89;101589.95;2081943;83;21082;-72
2021/12/16 09:34:08;;;;;;;19.30;12.98;;;;;;;6.17;91.87;101598.25;2084328;83;21503;-70
2021/12/16 09:37:08;;;;;;;19.92;13.05;;;;;;;6.19;92.02;101595.49;2082194;83;21491;-72
2021/12/16 09:40:15;;;;;;;19.80;13.28;;;;;;;6.19;92.03;101587.11;2083114;82;21014;-75
2021/12/16 09:43:25;;;;;;;30.32;16.48;;;;;;;6.23;92.07;101585.13;2062768;83;21052;-72
2021/12/16 09:46:29;;;;;;;28.42;17.42;;;;;;;6.25;92.06;101589.36;2080755;83;21040;-71
2021/12/16 09:49:31;;;;;;;21.62;13.25;;;;;;;6.27;92.04;101580.02;2085314;82;21520;-78
2021/12/16 09:52:32;;;;;;;20.15;12.47;;;;;;;6.31;92.11;101580.64;2080946;83;21072;-73
2021/12/16 09:55:34;;;;;;;17.25;11.20;;;;;;;6.33;92.12;101584.87;2085514;82;21925;-71
2021/12/16 09:58:44;;;;;;;17.10;11.30;;;;;;;6.36;92.17;101580.70;2086325;82;21048;-74
2021/12/16 10:01:54;;;;;;;17.20;10.78;;;;;;;6.37;92.07;101582.89;2079774;83;21071;-72
2021/12/16 10:04:55;;;;;;;17.67;12.10;;;;;;;6.39;92.13;101586.24;2089216;83;21369;-74
2021/12/16 10:07:58;;;;;;;17.10;11.30;;;;;;;6.40;92.13;101590.59;2091694;83;20980;-72
2021/12/16 10:11:00;;;;;;;14.93;10.70;;;;;;;6.42;92.14;101592.63;2090636;83;21094;-73
2021/12/16 10:14:18;;;;;;;12.23;9.10;;;;;;;6.45;92.17;101602.99;2083390;83;21797;-74
2021/12/16 10:17:24;;;;;;;12.82;9.10;;;;;;;6.46;92.16;101598.08;2094023;83;21135;-72
2021/12/16 10:20:30;;;;;;;10.43;8.38;;;;;;;6.47;92.15;101591.36;2083776;82;21079;-73
2021/12/16 10:23:40;;;;;;;12.63;8.48;;;;;;;6.45;92.12;101585.38;2096000;83;21020;-72
2021/12/16 10:26:41;;;;;;;11.03;7.45;;;;;;;6.45;92.12;101587.17;2082717;82;21021;-76
2021/12/16 10:30:00;;;;;;;10.03;7.10;;;;;;;6.45;92.12;101590.64;2085695;82;21065;-74
2021/12/16 10:33:16;;;;;;;13.00;9.65;;;;;;;6.47;92.19;101590.05;2079651;83;21088;-72
2021/12/16 10:36:34;;;;;;;10.93;8.53;;;;;;;6.47;92.14;101590.53;2086133;82;21069;-71
2021/12/16 10:39:36;;;;;;;10.38;7.28;;;;;;;6.47;92.19;101593.16;2085930;82;21140;-72
2021/12/16 10:42:46;;;;;;;10.85;8.03;;;;;;;6.49;92.28;101587.32;2080976;83;21582;-71
2021/12/16 10:45:56;;;;;;;9.95;7.80;;;;;;;6.50;92.36;101571.41;2065975;83;21040;-73
2021/12/16 10:49:09;;;;;;;9.10;6.95;;;;;;;6.54;92.40;101573.83;2078066;82;21022;-79
2021/12/16 10:52:15;;;;;;;9.48;6.80;;;;;;;6.57;92.39;101572.30;2089251;82;21610;-72
2021/12/16 10:55:16;;;;;;;9.58;6.75;;;;;;;6.59;92.41;101573.02;2070355;82;21770;-73
2021/12/16 10:58:18;;;;;;;9.88;6.67;;;;;;;6.61;92.37;101567.17;2084151;82;21075;-71
2021/12/16 11:01:34;;;;;;;9.50;7.85;;;;;;;6.64;92.36;101561.20;2090095;83;21167;-71
2021/12/16 11:04:44;;;;;;;8.03;7.12;;;;;;;6.66;92.38;101561.95;2082716;83;21147;-72
2021/12/16 11:07:55;;;;;;;10.03;7.00;;;;;;;6.69;92.38;101565.69;2090495;83;21206;-72
2021/12/16 11:10:59;;;;;;;8.60;7.27;;;;;;;6.70;92.28;101575.30;2089096;83;21469;-75
2021/12/16 11:14:07;;;;;;;9.05;6.83;;;;;;;6.70;92.22;101581.03;2088932;83;21837;-73
2021/12/16 11:17:12;;;;;;;10.00;6.67;;;;;;;6.70;92.10;101578.39;2053585;83;21046;-75
2021/12/16 11:20:19;;;;;;;8.43;6.35;;;;;;;6.70;92.10;101578.39;2095935;83;21588;-78
2021/12/16 11:23:28;;;;;;;9.70;6.83;;;;;;;6.70;92.06;101593.77;2091563;82;21025;-77
2021/12/16 11:26:33;;;;;;;10.88;6.55;;;;;;;6.66;91.99;101596.23;2050123;82;21052;-82
2021/12/16 11:29:34;;;;;;;9.43;7.10;;;;;;;6.63;91.99;101597.77;2091507;82;21048;-81
2021/12/16 11:32:46;;;;;;;10.08;7.37;;;;;;;6.61;91.99;101600.98;2081608;82;21067;-82
2021/12/16 11:35:53;;;;;;;12.05;8.80;;;;;;;6.61;92.06;101600.14;2079824;83;21072;-80
2021/12/16 11:39:09;;;;;;;10.65;7.60;;;;;;;6.60;92.20;101600.62;2082721;83;21036;-81
2021/12/16 11:42:11;;;;;;;9.03;6.67;;;;;;;6.59;92.20;101595.44;2076495;82;21486;-80
2021/12/16 11:45:18;;;;;;;9.30;6.60;;;;;;;6.59;92.28;101594.11;2092435;83;20986;-81
2021/12/16 11:48:31;;;;;;;8.00;5.55;;;;;;;6.59;92.32;101589.71;2079794;83;21094;-80
2021/12/16 11:51:40;;;;;;;8.25;5.72;;;;;;;6.61;92.37;101586.47;2077687;82;21028;-80
2021/12/16 11:55:05;;;;;;;6.10;5.30;;;;;;;6.64;92.42;101573.55;2078336;83;21080;-83
2021/12/16 11:58:08;;;;;;;11.53;7.10;;;;;;;6.67;92.38;101562.33;2094199;83;21948;-80
2021/12/16 12:01:21;;;;;;;8.78;5.65;;;;;;;6.68;92.36;101561.38;2069219;83;21158;-80
2021/12/16 12:04:36;;;;;;;7.45;5.50;;;;;;;6.66;92.20;101561.11;2079153;82;21043;-81
2021/12/16 12:07:45;;;;;;;6.12;5.40;;;;;;;6.66;92.22;101556.67;2082517;82;21120;-80
2021/12/16 12:11:02;;;;;;;7.62;6.05;;;;;;;6.64;92.19;101559.88;2081898;83;21048;-80
2021/12/16 12:14:08;;;;;;;9.75;7.10;;;;;;;6.65;92.18;101573.94;2085164;82;21024;-80
2021/12/16 12:17:19;;;;;;;9.03;6.80;;;;;;;6.66;92.17;101580.41;2059265;83;21512;-80
2021/12/16 12:20:31;;;;;;;10.68;7.62;;;;;;;6.66;92.09;101572.98;2087391;82;21027;-80
2021/12/16 12:23:34;;;;;;;10.53;7.13;;;;;;;6.65;92.06;101566.86;2090024;81;22569;-80
2021/12/16 12:26:43;;;;;;;10.15;6.78;;;;;;;6.64;92.04;101563.84;2092695;83;21032;-79
2021/12/16 12:30:01;;;;;;;10.25;7.40;;;;;;;6.63;92.03;101556.89;2083874;83;21031;-79
2021/12/16 12:33:03;;;;;;;7.72;6.33;;;;;;;6.63;92.04;101560.84;2066443;82;21048;-80
2021/12/16 12:36:07;;;;;;;8.88;6.25;;;;;;;6.63;92.02;101565.28;2079923;82;21072;-78
2021/12/16 12:39:13;;;;;;;8.30;6.40;;;;;;;6.63;92.04;101567.44;2082105;83;21573;-77
2021/12/16 12:42:19;;;;;;;12.13;7.40;;;;;;;6.64;91.99;101574.39;2076811;83;21096;-80
2021/12/16 12:45:24;;;;;;;12.10;8.53;;;;;;;6.67;92.00;101579.92;2086126;83;21734;-80
2021/12/16 12:48:26;;;;;;;10.90;7.37;;;;;;;6.66;91.87;101571.18;2083191;82;21056;-79
2021/12/16 12:51:42;;;;;;;13.65;8.45;;;;;;;6.64;91.78;101565.64;2092982;83;21000;-79
2021/12/16 12:55:00;;;;;;;10.48;7.45;;;;;;;6.64;91.75;101574.39;2092188;83;21507;-80
2021/12/16 12:58:06;;;;;;;10.40;7.30;;;;;;;6.63;91.73;101581.94;2083280;83;20989;-79
2021/12/16 13:01:08;;;;;;;7.67;6.37;;;;;;;6.64;91.70;101590.21;2083963;83;21670;-79
2021/12/16 13:04:23;;;;;;;7.85;6.65;;;;;;;6.64;91.54;101581.46;2091371;82;21551;-78
2021/12/16 13:07:43;;;;;;;8.88;6.72;;;;;;;6.61;91.46;101587.79;2080912;83;21684;-78
2021/12/16 13:10:48;;;;;;;7.80;6.55;;;;;;;6.61;91.50;101589.11;2073088;83;21627;-78
2021/12/16 13:14:18;;;;;;;13.95;8.93;;;;;;;6.60;91.50;101588.75;2081708;83;21531;-78
2021/12/16 13:23:20;;;;;;;10.00;7.37;;;;;;;6.58;91.43;101601.67;2088282;82;21682;-78
2021/12/16 13:25:37;;;;;;;9.58;7.08;;;;;;;6.58;91.41;101593.27;2092930;83;21037;-79
2021/12/16 13:27:43;;;;;;;10.95;7.33;;;;;;;6.55;91.36;101596.13;2064156;83;21093;-78
2021/12/16 13:30:55;;;;;;;9.33;7.30;;;;;;;6.53;91.37;101609.05;2087235;83;21079;-79
2021/12/16 13:33:58;;;;;;;10.30;7.42;;;;;;;6.49;91.37;101609.25;2066526;81;21080;-79
2021/12/16 13:37:13;;;;;;;10.70;6.65;;;;;;;6.50;91.37;101608.77;2091579;82;22387;-80
2021/12/16 13:40:34;;;;;;;9.93;7.08;;;;;;;6.49;91.38;101615.84;2078502;82;21127;-80
2021/12/16 13:43:37;;;;;;;10.93;7.05;;;;;;;6.47;91.41;101616.41;2091178;82;21037;-79
2021/12/16 13:47:09;;;;;;;9.03;6.60;;;;;;;6.46;91.45;101621.33;2079985;83;21079;-80
2021/12/16 14:04:03;;;;;;;9.48;6.08;;;;;;;6.42;91.50;101634.81;2080218;83;21010;-80
2021/12/16 14:07:13;;;;;;;7.95;5.80;;;;;;;6.43;91.53;101631.25;2098542;82;21095;-78
2021/12/16 14:10:20;;;;;;;8.38;6.30;;;;;;;6.40;91.50;101634.94;2088020;82;21092;-79
2021/12/16 14:17:14;;;;;;;11.53;7.40;;;;;;;6.42;91.55;101633.49;2078607;82;21127;-79
2021/12/16 14:24:21;;;;;;;10.68;7.62;;;;;;;6.41;91.52;101631.81;2082202;82;21554;-80
2021/12/16 14:27:19;;;;;;;13.72;7.92;;;;;;;6.39;91.49;101618.75;2097550;83;21083;-80
2021/12/16 14:37:29;;;;;;;35.75;13.45;;;;;;;6.41;91.54;101637.09;2091166;82;21056;-79
2021/12/16 14:43:55;;;;;;;11.35;6.35;;;;;;;6.39;91.46;101654.80;2063107;83;21112;-79
2021/12/16 14:46:48;;;;;;;10.90;6.45;;;;;;;6.39;91.41;101662.26;2086555;83;21051;-79
2021/12/16 14:49:49;;;;;;;12.65;6.53;;;;;;;6.40;91.44;101666.57;2092859;82;21056;-79
2021/12/16 14:52:51;;;;;;;9.58;6.28;;;;;;;6.40;91.38;101673.64;2081948;82;21062;-80
2021/12/16 14:55:58;;;;;;;15.48;8.23;;;;;;;6.41;91.35;101676.64;2096530;82;21072;-81
2021/12/16 14:59:05;;;;;;;23.15;10.00;;;;;;;6.42;91.29;101684.91;2092272;82;21113;-79
2021/12/16 15:02:10;;;;;;;12.07;8.33;;;;;;;6.40;91.21;101674.48;2088617;83;21135;-80
2021/12/16 15:05:34;;;;;;;14.13;8.33;;;;;;;6.40;91.12;101686.34;2086804;82;21171;-80
2021/12/16 15:09:09;;;;;;;22.77;10.20;;;;;;;6.38;91.08;101680.80;2097934;83;21072;-77
2021/12/16 15:12:00;;;;;;;22.67;10.43;;;;;;;6.36;91.00;101680.05;2084500;83;21064;-77
2021/12/16 15:38:33;;;;;;;24.70;13.22;;;;;;;6.05;90.35;101689.95;2084636;83;21024;-73
2021/12/16 15:44:41;;;;;;;14.67;9.13;;;;;;;5.89;90.26;101683.50;2086400;82;21060;-77
2021/12/16 15:47:54;;;;;;;13.62;9.88;;;;;;;5.82;90.29;101688.77;2081693;82;22405;-83
2021/12/16 15:51:09;;;;;;;16.15;8.33;;;;;;;5.78;90.32;101690.77;2093943;83;21113;-83
2021/12/16 15:54:17;;;;;;;12.10;8.08;;;;;;;5.73;90.29;101703.84;2084271;83;21049;-81
2021/12/16 15:57:17;;;;;;;14.33;8.80;;;;;;;5.68;90.34;101705.44;2092991;82;22058;-82
2021/12/16 16:00:22;;;;;;;26.80;14.75;;;;;;;5.61;90.25;101697.09;2098768;83;21083;-83
2021/12/16 16:03:26;;;;;;;19.67;12.78;;;;;;;5.60;90.38;101707.70;2081437;82;21053;-78
2021/12/16 16:06:30;;;;;;;16.67;9.78;;;;;;;5.58;90.43;101714.87;2087391;82;21093;-81
2021/12/16 16:09:43;;;;;;;24.55;12.10;;;;;;;5.56;90.35;101722.02;2078250;82;21058;-77
2021/12/16 16:12:45;;;;;;;16.85;9.88;;;;;;;5.53;90.32;101724.84;2095634;83;21582;-76
2021/12/16 16:15:49;;;;;;;13.85;8.70;;;;;;;5.55;90.41;101738.30;2088242;83;21107;-81
2021/12/16 16:19:00;;;;;;;16.90;9.80;;;;;;;5.59;90.41;101738.94;2090606;83;21076;-79
2021/12/16 16:22:03;;;;;;;14.00;8.63;;;;;;;5.62;90.32;101737.44;2075757;82;21586;-78
2021/12/16 16:25:06;;;;;;;12.75;7.78;;;;;;;5.64;90.15;101742.14;2090641;82;21032;-77
2021/12/16 16:28:11;;;;;;;9.85;6.53;;;;;;;5.67;90.12;101740.62;2078072;83;21638;-76
2021/12/16 16:31:18;;;;;;;9.15;6.90;;;;;;;5.68;89.99;101738.36;2076907;83;21087;-79
2021/12/16 16:34:25;;;;;;;15.80;8.00;;;;;;;5.70;89.91;101745.70;2090331;83;22058;-79
2021/12/16 16:37:32;;;;;;;12.28;7.45;;;;;;;5.71;89.88;101736.85;2093680;83;21028;-79
2021/12/16 16:40:43;;;;;;;10.90;7.03;;;;;;;5.74;89.83;101735.34;2083600;82;21119;-80
2021/12/16 16:43:56;;;;;;;9.90;6.53;;;;;;;5.74;89.70;101740.61;2081922;83;21541;-81
2021/12/16 16:47:10;;;;;;;9.10;6.87;;;;;;;5.76;89.60;101747.11;2082509;83;21097;-80
2021/12/16 16:50:12;;;;;;;9.43;6.33;;;;;;;5.75;89.57;101746.75;2085462;82;21116;-78
2021/12/16 16:53:14;;;;;;;10.98;6.35;;;;;;;5.75;89.52;101737.05;2091780;82;20999;-80
2021/12/16 16:56:37;;;;;;;9.45;6.47;;;;;;;5.75;89.43;101738.84;2090067;82;21073;-80
2021/12/16 17:00:01;;;;;;;9.85;5.87;;;;;;;5.74;89.26;101731.39;2090027;83;21610;-79
2021/12/16 17:03:14;;;;;;;10.48;6.25;;;;;;;5.73;89.19;101727.08;2072978;82;21176;-81
2021/12/16 17:06:15;;;;;;;9.10;6.00;;;;;;;5.71;89.12;101740.80;2092662;82;20999;-80
2021/12/16 17:09:18;;;;;;;8.60;5.72;;;;;;;5.71;89.02;101736.85;2087041;83;21650;-79
2021/12/16 17:12:21;;;;;;;9.73;7.05;;;;;;;5.72;88.94;101729.82;2090096;82;21017;-76
2021/12/16 17:15:38;;;;;;;8.40;5.87;;;;;;;5.70;88.86;101731.70;2093197;83;21076;-82
2021/12/16 17:18:40;;;;;;;7.78;5.55;;;;;;;5.67;88.65;101738.00;2083935;83;21066;-81
2021/12/16 17:21:48;;;;;;;7.72;5.25;;;;;;;5.66;88.71;101743.34;2036836;85;21116;-79
2021/12/16 17:24:49;;;;;;;9.23;5.08;;;;;;;5.63;88.50;101747.02;2032518;85;21080;-79
2021/12/16 17:27:56;;;;;;;10.85;5.45;;;;;;;5.60;88.24;101739.30;2011336;86;21135;-76
2021/12/16 17:31:01;;;;;;;8.68;5.33;;;;;;;5.58;88.14;101752.58;2021444;86;21106;-76
2021/12/16 17:34:23;;;;;;;9.68;5.92;;;;;;;5.55;88.22;101755.41;2097353;83;21567;-77
2021/12/16 17:37:35;;;;;;;17.50;9.23;;;;;;;5.49;88.08;101758.87;2085010;83;21084;-78
2021/12/16 17:40:45;;;;;;;27.77;11.12;;;;;;;5.46;88.15;101760.38;2088374;83;21097;-76
2021/12/16 17:43:46;;;;;;;36.73;14.53;;;;;;;5.41;88.17;101756.73;2091640;82;21073;-76
2021/12/16 17:46:57;;;;;;;43.25;16.70;;;;;;;5.37;88.16;101752.57;2088889;83;21437;-76
2021/12/16 17:50:00;;;;;;;45.17;18.62;;;;;;;5.35;88.15;101739.96;2088468;83;21032;-75
2021/12/16 17:53:02;;;;;;;22.07;9.70;;;;;;;5.34;88.24;101750.97;2091130;82;21034;-76